Flight Track Log - Related Links

Times and Time Zones

All times are in EDT time to prevent confusion due to time zone crossing. See the USC105 flight status page for this flight to view local times or setup timezone preferences in your user account.

Time Position Orientation Groundspeed Altitude Reporting Facility
EDT Latitude Longitude Course Direction KTS MPH feet Rate Location/Type
Fri 12:14:17 AM 42.2419 -83.5758 274° West 129 148 1,600  Level Cleveland Center
Fri 12:15:18 AM 42.2408 -83.6236 268° West 126 145 2,600 893 Climbing Cleveland Center
Fri 12:16:18 AM 42.2394 -83.6711 268° West 128 147 3,400 793 Climbing Cleveland Center
Fri 12:17:19 AM 42.2361 -83.7186 265° West 133 153 4,200 836 Climbing Cleveland Center
Fri 12:18:20 AM 42.2325 -83.7719 265° West 139 160 5,100 843 Climbing Cleveland Center
Fri 12:19:20 AM 42.2311 -83.8222 268° West 140 161 5,900 378 Climbing Cleveland Center
Fri 12:20:27 AM 42.2228 -83.8919 261° West 170 196 5,900 33 Level Cleveland Center
Fri 12:22:24 AM 42.2219 -84.0067 269° West 172 198 6,000 34 Climbing Chicago Center
Fri 12:23:24 AM 42.2169 -84.0881 265° West 177 204 6,000  Level Chicago Center
Fri 12:24:25 AM 42.2125 -84.1575 265° West 182 209 6,000  Level Chicago Center
Fri 12:25:25 AM 42.2075 -84.2147 263° West 185 213 6,000  Level Chicago Center
Fri 12:26:26 AM 42.2053 -84.2842 268° West 187 215 6,000  Level Chicago Center
Fri 12:27:26 AM 42.2000 -84.3539 264° West 186 214 6,000  Level Chicago Center
Fri 12:28:27 AM 42.1947 -84.4358 265° West 185 213 6,000  Level Chicago Center
Fri 12:29:27 AM 42.1917 -84.5036 267° West 183 211 6,000  Level Chicago Center
Fri 12:30:28 AM 42.1886 -84.5700 266° West 184 212 6,000  Level Chicago Center
Fri 12:31:28 AM 42.1833 -84.6394 264° West 186 214 6,000  Level Chicago Center
Fri 12:32:29 AM 42.1800 -84.7072 266° West 184 212 6,000  Level Chicago Center
Fri 12:33:30 AM 42.1747 -84.7756 264° West 183 211 6,000  Level Chicago Center
Fri 12:34:29 AM 42.1711 -84.8439 266° West 183 211 6,000  Level Chicago Center
Fri 12:35:30 AM 42.1667 -84.9114 265° West 183 211 6,000  Level Chicago Center
Fri 12:36:30 AM 42.1628 -84.9803 266° West 185 213 6,000  Level Chicago Center
Fri 12:37:31 AM 42.1581 -85.0472 265° West 182 209 6,000  Level Chicago Center
Fri 12:38:31 AM 42.1536 -85.1153 265° West 184 212 6,000  Level Chicago Center
Fri 12:39:32 AM 42.1489 -85.1831 265° West 183 211 6,000  Level Chicago Center
Fri 12:40:32 AM 42.1453 -85.2511 266° West 183 211 6,000  Level Chicago Center
Fri 12:41:33 AM 42.1406 -85.3183 265° West 182 209 6,000  Level Chicago Center
Fri 12:42:33 AM 42.1364 -85.3847 265° West 181 208 6,000  Level Chicago Center
Fri 12:43:34 AM 42.1317 -85.4514 265° West 180 207 6,000  Level Chicago Center
Fri 12:44:35 AM 42.1258 -85.5314 264° West 179 206 6,000  Level Chicago Center
Fri 12:45:34 AM 42.1208 -85.5983 264° West 180 207 6,000  Level Chicago Center
Fri 12:46:35 AM 42.1169 -85.6656 266° West 181 208 6,000  Level Chicago Center
Fri 12:47:35 AM 42.1122 -85.7328 265° West 181 208 6,000  Level Chicago Center
Fri 12:48:36 AM 42.1069 -85.8000 264° West 181 208 6,000  Level Chicago Center
Fri 12:49:36 AM 42.1019 -85.8667 264° West 181 208 6,000  Level Chicago Center
Fri 12:50:36 AM 42.0978 -85.9342 265° West 182 209 6,000  Level Chicago Center
Fri 12:51:37 AM 42.0928 -86.0025 264° West 183 211 6,000  Level Chicago Center
Fri 12:52:37 AM 42.0878 -86.0689 264° West 181 208 6,000  Level Chicago Center
Fri 12:53:37 AM 42.0822 -86.1353 264° West 180 207 6,000  Level Chicago Center
Fri 12:54:38 AM 42.0775 -86.2008 264° West 178 205 6,000  Level Chicago Center
Fri 12:55:38 AM 42.0725 -86.2675 264° West 179 206 6,000  Level Chicago Center
Fri 12:56:38 AM 42.0675 -86.3325 264° West 177 204 6,000  Level Chicago Center
Fri 12:57:39 AM 42.0625 -86.3981 264° West 176 203 6,000  Level Chicago Center
Fri 12:58:39 AM 42.0583 -86.4633 265° West 177 204 6,000  Level Chicago Center
Fri 12:59:39 AM 42.0519 -86.5289 263° West 176 203 6,000  Level Chicago Center
Fri 01:00:40 AM 42.0475 -86.5958 265° West 179 206 6,000  Level Chicago Center
Fri 01:01:40 AM 42.0422 -86.6636 264° West 182 209 6,000  Level Chicago Center
Fri 01:02:40 AM 42.0375 -86.7353 265° West 181 208 6,000  Level Chicago Center
Fri 01:03:41 AM 42.0322 -86.8036 264° West 184 212 6,000  Level Chicago Center
Fri 01:04:41 AM 42.0264 -86.8719 263° West 184 212 6,000  Level Chicago Center
Fri 01:05:41 AM 42.0200 -86.9406 263° West 186 214 6,000  Level Chicago Center
Fri 01:06:42 AM 42.0131 -87.0078 262° West 184 212 6,000  Level Chicago Center
Fri 01:07:42 AM 42.0011 -87.0733 256° West 183 211 6,000  Level Chicago Center
Fri 01:08:42 AM 41.9878 -87.1389 255° West 184 212 6,000  Level Chicago Center
Fri 01:09:43 AM 41.9744 -87.2039 255° West 182 209 6,000  Level Chicago Center
Fri 01:10:43 AM 41.9619 -87.2708 256° West 185 213 6,000  Level Chicago Center
Fri 01:11:43 AM 41.9489 -87.3347 255° West 181 208 6,000  Level Chicago Center
Fri 01:12:43 AM 41.9367 -87.4003 256° West 181 208 6,000  Level Chicago Center
Fri 01:13:06 AM 41.9333 -87.4333 262° West 185 213 6,000  Level Chicago TRACON
Fri 01:14:06 AM 41.9167 -87.5000 251° West 186 214 6,000  Level Chicago TRACON
Fri 01:15:00 AM 41.9000 -87.5667 251° West 185 213 6,000  Level Chicago TRACON
Fri 01:16:06 AM 41.9000 -87.6333 270° West 184 212 6,000  Level Chicago TRACON
Fri 01:17:06 AM 41.8833 -87.7000 251° West 180 207 6,000  Level Chicago TRACON
Fri 01:18:00 AM 41.8667 -87.7667 251° West 177 204 6,000  Level Chicago TRACON
Fri 01:19:06 AM 41.8667 -87.8333 270° West 177 204 6,000  Level Chicago TRACON
Fri 01:19:53 AM 41.8500 -87.8833 246° West 176 203 6,000 -364 Level Chicago TRACON
Fri 01:20:45 AM 41.8478 -87.9328 267° West 176 203 5,400 -690 Descending Chicago Center
Fri 01:21:46 AM 41.8358 -88.0003 257° West 181 208 4,700 -694 Descending Chicago Center
Fri 01:22:46 AM 41.8244 -88.0672 257° West 184 212 4,000 -350 Descending Chicago Center
Fri 01:23:46 AM 41.8142 -88.1292 257° West 181 208 4,000 -300 Level Chicago Center
Fri 01:24:46 AM 41.7975 -88.1808 247° West 164 189 3,400 -744 Descending Chicago Center
Fri 01:25:47 AM 41.7697 -88.2375 237° Southwest 171 197 2,500 -446 Descending Chicago Center
Fri 01:26:47 AM 41.7569 -88.2914 252° West 171 197 2,500 -50 Level Chicago Center
Fri 01:27:47 AM 41.7908 -88.2886 North 140 161 2,400 -50 Descending Chicago Center
Fri 01:28:47 AM 41.8211 -88.2797 12° North 123 142 2,400 -298 Level Chicago Center
Fri 01:29:48 AM 41.8483 -88.2689 17° North 112 129 1,800 -545 Descending Chicago Center
Fri 01:30:48 AM 41.8758 -88.2597 14° North 106 122 1,300 -400 Descending Chicago Center
Fri 01:31:48 AM 41.9011 -88.2514 14° North 105 121 1,000 -300 Descending Chicago Center

Login

Don't have an account? Register now (free) for customized features, flight alerts, and more!